createdAt,value
2017-03-31T00:00:24.278Z,0
2017-03-31T00:01:32.362Z,0
2017-03-31T00:02:40.453Z,0
2017-03-31T00:03:48.543Z,0
2017-03-31T00:04:56.629Z,0
2017-03-31T00:06:04.715Z,0
2017-03-31T00:07:12.802Z,0
2017-03-31T00:08:20.894Z,0
2017-03-31T00:09:28.982Z,0
2017-03-31T00:10:37.069Z,0
2017-03-31T00:11:45.158Z,0
2017-03-31T00:12:53.243Z,0
2017-03-31T00:14:01.331Z,0
2017-03-31T00:15:09.426Z,0
2017-03-31T00:16:17.512Z,0
2017-03-31T00:17:25.598Z,0
2017-03-31T00:18:33.688Z,0
2017-03-31T00:19:41.781Z,0
2017-03-31T00:20:49.880Z,0
2017-03-31T00:21:57.952Z,0
2017-03-31T00:23:06.046Z,0
2017-03-31T00:24:14.138Z,0
2017-03-31T00:25:22.226Z,0
2017-03-31T00:26:30.322Z,0
2017-03-31T00:27:38.413Z,0
2017-03-31T00:28:46.498Z,0
2017-03-31T00:29:54.586Z,0
2017-03-31T00:31:02.679Z,0
2017-03-31T00:32:10.768Z,0
2017-03-31T00:33:18.857Z,0
2017-03-31T00:34:26.943Z,0
2017-03-31T00:35:35.030Z,0
2017-03-31T00:36:43.114Z,0
2017-03-31T00:37:51.202Z,0
2017-03-31T00:38:59.295Z,0
2017-03-31T00:40:07.381Z,0
2017-03-31T00:41:15.530Z,0
2017-03-31T00:42:23.557Z,0
2017-03-31T00:43:31.644Z,0
2017-03-31T00:44:39.730Z,0
2017-03-31T00:45:47.812Z,0
2017-03-31T00:46:55.903Z,0
2017-03-31T00:48:03.990Z,0
2017-03-31T00:49:12.076Z,0
2017-03-31T00:50:20.167Z,0
2017-03-31T00:51:28.252Z,0
2017-03-31T00:52:36.338Z,0
2017-03-31T00:53:44.426Z,0
2017-03-31T00:54:52.517Z,0
2017-03-31T00:56:00.610Z,0
2017-03-31T00:57:08.687Z,0
2017-03-31T00:58:16.829Z,0
2017-03-31T00:59:24.866Z,0
2017-03-31T01:00:32.950Z,0
2017-03-31T01:01:41.039Z,0
2017-03-31T01:02:49.127Z,0
2017-03-31T01:03:57.217Z,0
2017-03-31T01:05:05.301Z,0
2017-03-31T01:06:20.338Z,0
2017-03-31T01:07:21.482Z,0
2017-03-31T01:08:29.568Z,0
2017-03-31T01:09:37.654Z,0
2017-03-31T01:10:45.740Z,0
2017-03-31T01:11:53.829Z,0
2017-03-31T01:13:01.912Z,0
2017-03-31T01:14:10.007Z,0
2017-03-31T01:15:18.115Z,0
2017-03-31T01:16:26.183Z,0
2017-03-31T01:17:34.271Z,0
2017-03-31T01:18:42.357Z,0
2017-03-31T01:19:50.444Z,0
2017-03-31T01:20:58.541Z,0
2017-03-31T01:22:06.630Z,0
2017-03-31T01:23:14.715Z,0
2017-03-31T01:24:22.797Z,0
2017-03-31T01:25:30.888Z,0
2017-03-31T01:26:38.975Z,0
2017-03-31T01:27:47.068Z,0
2017-03-31T01:28:55.153Z,0
2017-03-31T01:30:03.241Z,0
2017-03-31T01:31:11.328Z,0
2017-03-31T01:32:19.412Z,0
2017-03-31T01:33:27.498Z,0
2017-03-31T01:34:35.586Z,0
2017-03-31T01:35:43.674Z,0
2017-03-31T01:36:51.759Z,0
2017-03-31T01:37:59.861Z,0
2017-03-31T01:39:07.932Z,0
2017-03-31T01:40:16.017Z,0
2017-03-31T01:41:24.109Z,0
2017-03-31T01:42:32.195Z,0
2017-03-31T01:43:40.279Z,0
2017-03-31T01:44:48.366Z,0
2017-03-31T01:45:56.454Z,0
2017-03-31T01:47:04.541Z,0
2017-03-31T01:48:12.625Z,0
2017-03-31T01:49:21.705Z,0
2017-03-31T01:50:28.803Z,0
2017-03-31T01:51:36.887Z,0
2017-03-31T01:52:44.973Z,0
2017-03-31T01:53:53.065Z,0
2017-03-31T01:55:01.160Z,0
2017-03-31T01:56:09.237Z,0
2017-03-31T01:57:17.334Z,0
2017-03-31T01:58:25.413Z,0
2017-03-31T01:59:33.506Z,0
2017-03-31T02:00:41.587Z,0
2017-03-31T02:01:49.678Z,0
2017-03-31T02:02:57.759Z,0
2017-03-31T02:04:05.844Z,0
2017-03-31T02:05:13.939Z,0
2017-03-31T02:06:22.022Z,0
2017-03-31T02:07:40.659Z,0
2017-03-31T02:08:38.198Z,0
2017-03-31T02:09:46.296Z,0
2017-03-31T02:10:54.384Z,0
2017-03-31T02:12:02.467Z,0
2017-03-31T02:13:10.557Z,0
2017-03-31T02:14:18.643Z,0
2017-03-31T02:15:26.726Z,0
2017-03-31T02:16:34.823Z,0
2017-03-31T02:17:42.910Z,0
2017-03-31T02:18:50.995Z,0
2017-03-31T02:19:59.079Z,0
2017-03-31T02:21:07.168Z,0
2017-03-31T02:22:15.258Z,0
2017-03-31T02:23:23.339Z,0
2017-03-31T02:24:31.430Z,0
2017-03-31T02:25:39.524Z,0
2017-03-31T02:26:47.611Z,0
2017-03-31T02:27:55.698Z,0
2017-03-31T02:29:03.787Z,0
2017-03-31T02:30:11.998Z,0
2017-03-31T02:31:19.958Z,0
2017-03-31T02:32:28.046Z,0
2017-03-31T02:33:36.133Z,0
2017-03-31T02:34:44.219Z,0
2017-03-31T02:35:52.303Z,0
2017-03-31T02:37:00.390Z,0
2017-03-31T02:38:08.481Z,0
2017-03-31T02:39:16.565Z,0
2017-03-31T02:40:24.797Z,0
2017-03-31T02:41:32.737Z,0
2017-03-31T02:42:40.871Z,0
2017-03-31T02:43:48.904Z,0
2017-03-31T02:44:56.998Z,0
2017-03-31T02:46:05.081Z,0
2017-03-31T02:47:13.169Z,0
2017-03-31T02:48:21.298Z,0
2017-03-31T02:49:29.355Z,0
2017-03-31T02:50:37.428Z,0
2017-03-31T02:51:45.515Z,0
2017-03-31T02:52:53.610Z,0
2017-03-31T02:54:01.690Z,0
2017-03-31T02:55:09.776Z,0
2017-03-31T02:56:18.174Z,0
2017-03-31T02:57:25.951Z,0
2017-03-31T02:58:34.040Z,0
2017-03-31T02:59:42.125Z,0
2017-03-31T03:00:50.214Z,0
2017-03-31T03:01:58.300Z,0
2017-03-31T03:03:06.389Z,0
2017-03-31T03:04:14.479Z,0
2017-03-31T03:05:22.567Z,0
2017-03-31T03:06:30.648Z,0
2017-03-31T03:07:38.734Z,0
2017-03-31T03:08:46.829Z,0
2017-03-31T03:09:54.922Z,0
2017-03-31T03:11:03.023Z,0
2017-03-31T03:12:11.094Z,0
2017-03-31T03:13:19.181Z,0
2017-03-31T03:14:27.263Z,0
2017-03-31T03:15:35.353Z,0
2017-03-31T03:16:43.440Z,0
2017-03-31T03:17:51.531Z,0
2017-03-31T03:18:59.610Z,0
2017-03-31T03:20:07.700Z,0
2017-03-31T03:21:15.787Z,0
2017-03-31T03:22:23.871Z,0
2017-03-31T03:23:31.957Z,0
2017-03-31T03:24:40.048Z,0
2017-03-31T03:25:48.272Z,0
2017-03-31T03:26:56.215Z,0
2017-03-31T03:28:04.306Z,0
2017-03-31T03:29:12.393Z,0
2017-03-31T03:30:20.476Z,0
2017-03-31T03:31:28.564Z,0
2017-03-31T03:32:36.656Z,0
2017-03-31T03:33:44.734Z,0
2017-03-31T03:34:52.818Z,0
2017-03-31T03:36:00.909Z,0
2017-03-31T03:37:08.993Z,0
2017-03-31T03:38:17.075Z,0
2017-03-31T03:39:25.169Z,0
2017-03-31T03:40:33.254Z,0
2017-03-31T03:41:41.349Z,0
2017-03-31T03:42:49.425Z,0
2017-03-31T03:43:57.519Z,0
2017-03-31T03:45:05.600Z,0
2017-03-31T03:46:13.686Z,0
2017-03-31T03:47:21.772Z,0
2017-03-31T03:48:29.863Z,0
2017-03-31T03:49:37.941Z,0
2017-03-31T03:50:46.289Z,0
2017-03-31T03:51:54.118Z,0
2017-03-31T03:53:02.926Z,0
2017-03-31T03:54:10.286Z,0
2017-03-31T03:55:18.375Z,0
2017-03-31T03:56:26.466Z,0
2017-03-31T03:57:35.142Z,0
2017-03-31T03:58:42.637Z,0
2017-03-31T03:59:50.728Z,0
2017-03-31T04:00:58.814Z,0
2017-03-31T04:02:06.894Z,0
2017-03-31T04:03:14.984Z,0
2017-03-31T04:04:23.070Z,0
2017-03-31T04:05:31.160Z,0
2017-03-31T04:06:39.240Z,0
2017-03-31T04:07:47.328Z,0
2017-03-31T04:08:55.415Z,0
2017-03-31T04:10:03.497Z,0
2017-03-31T04:11:11.585Z,0
2017-03-31T04:12:19.674Z,0
2017-03-31T04:13:27.754Z,0
2017-03-31T04:14:35.841Z,0
2017-03-31T04:15:43.929Z,0
2017-03-31T04:16:52.022Z,0
2017-03-31T04:18:00.100Z,0
2017-03-31T04:19:08.193Z,0
2017-03-31T04:20:16.281Z,0
2017-03-31T04:21:24.366Z,0
2017-03-31T04:22:32.448Z,0
2017-03-31T04:23:40.536Z,0
2017-03-31T04:24:48.632Z,0
2017-03-31T04:25:56.706Z,0
2017-03-31T04:27:04.795Z,0
2017-03-31T04:28:12.883Z,0
2017-03-31T04:29:20.965Z,0
2017-03-31T04:30:29.055Z,0
2017-03-31T04:31:37.146Z,0
2017-03-31T04:32:45.231Z,0
2017-03-31T04:33:53.318Z,0
2017-03-31T04:35:01.403Z,0
2017-03-31T04:36:09.492Z,0
2017-03-31T04:37:18.210Z,0
2017-03-31T04:38:25.662Z,0
2017-03-31T04:39:33.745Z,0
2017-03-31T04:40:41.829Z,0
2017-03-31T04:41:49.917Z,0
2017-03-31T04:42:58.002Z,0
2017-03-31T04:44:06.089Z,0
2017-03-31T04:45:14.175Z,0
2017-03-31T04:46:22.258Z,0
2017-03-31T04:47:30.344Z,0
2017-03-31T04:48:38.426Z,0
2017-03-31T04:49:46.515Z,0
2017-03-31T04:50:54.605Z,0
2017-03-31T04:52:02.782Z,0
2017-03-31T04:53:10.777Z,0
2017-03-31T04:54:18.866Z,0
2017-03-31T04:55:26.953Z,0
2017-03-31T04:56:35.037Z,0
2017-03-31T04:57:43.122Z,0
2017-03-31T04:58:51.213Z,0
2017-03-31T04:59:59.300Z,0
2017-03-31T05:01:07.380Z,0
2017-03-31T05:02:15.469Z,0
2017-03-31T05:03:23.555Z,0
2017-03-31T05:04:31.642Z,0
2017-03-31T05:05:39.729Z,0
2017-03-31T05:06:47.819Z,0
2017-03-31T05:07:55.911Z,4
2017-03-31T05:09:03.994Z,4
2017-03-31T05:10:12.078Z,0
2017-03-31T05:11:20.172Z,0
2017-03-31T05:12:28.245Z,4
2017-03-31T05:13:36.333Z,4
2017-03-31T05:14:44.424Z,0
2017-03-31T05:15:52.508Z,0
2017-03-31T05:17:00.600Z,0
2017-03-31T05:18:08.692Z,4
2017-03-31T05:19:16.777Z,4
2017-03-31T05:20:24.860Z,4
2017-03-31T05:21:32.942Z,4
2017-03-31T05:22:41.030Z,4
2017-03-31T05:23:49.118Z,4
2017-03-31T05:24:57.201Z,4
2017-03-31T05:26:05.293Z,4
2017-03-31T05:27:13.384Z,4
2017-03-31T05:28:21.736Z,4
2017-03-31T05:29:29.553Z,4
2017-03-31T05:30:37.640Z,4
2017-03-31T05:31:45.723Z,8
2017-03-31T05:32:53.804Z,4
2017-03-31T05:34:01.894Z,4
2017-03-31T05:35:09.979Z,4
2017-03-31T05:36:18.063Z,4
2017-03-31T05:37:26.638Z,8
2017-03-31T05:38:34.284Z,8
2017-03-31T05:39:42.316Z,4
2017-03-31T05:40:50.403Z,8
2017-03-31T05:41:58.489Z,8
2017-03-31T05:43:06.576Z,8
2017-03-31T05:44:14.660Z,12
2017-03-31T05:45:22.750Z,12
2017-03-31T05:46:30.829Z,12
2017-03-31T05:47:38.916Z,16
2017-03-31T05:48:47.022Z,28
2017-03-31T05:49:55.088Z,36
2017-03-31T05:51:03.177Z,36
2017-03-31T05:52:11.258Z,36
2017-03-31T05:53:19.346Z,32
2017-03-31T05:54:27.432Z,24
2017-03-31T05:55:35.602Z,20
2017-03-31T05:56:43.606Z,24
2017-03-31T05:57:51.690Z,28
2017-03-31T05:58:59.774Z,24
2017-03-31T06:00:07.859Z,24
2017-03-31T06:01:15.946Z,20
2017-03-31T06:02:24.032Z,20
2017-03-31T06:03:32.117Z,20
2017-03-31T06:04:40.201Z,24
2017-03-31T06:05:48.294Z,20
2017-03-31T06:06:56.379Z,20
2017-03-31T06:08:04.459Z,24
2017-03-31T06:09:12.549Z,24
2017-03-31T06:10:20.635Z,24
2017-03-31T06:11:28.719Z,24
2017-03-31T06:12:36.876Z,24
2017-03-31T06:13:44.890Z,24
2017-03-31T06:14:52.971Z,28
2017-03-31T06:16:01.057Z,28
2017-03-31T06:17:09.150Z,28
2017-03-31T06:18:17.236Z,32
2017-03-31T06:19:25.320Z,36
2017-03-31T06:20:33.404Z,32
2017-03-31T06:21:41.492Z,32
2017-03-31T06:22:49.577Z,36
2017-03-31T06:23:57.665Z,40
2017-03-31T06:25:05.754Z,56
2017-03-31T06:26:13.837Z,64
2017-03-31T06:27:21.916Z,76
2017-03-31T06:28:30.003Z,88
2017-03-31T06:29:38.092Z,92
2017-03-31T06:30:46.183Z,92
2017-03-31T06:31:54.260Z,92
2017-03-31T06:33:02.348Z,88
2017-03-31T06:34:10.433Z,84
2017-03-31T06:35:18.519Z,80
2017-03-31T06:36:26.604Z,80
2017-03-31T06:37:34.692Z,80
2017-03-31T06:38:43.289Z,76
2017-03-31T06:39:51.110Z,72
2017-03-31T06:40:59.015Z,64
2017-03-31T06:42:07.041Z,56
2017-03-31T06:43:15.122Z,52
2017-03-31T06:44:23.213Z,52
2017-03-31T06:45:31.295Z,48
2017-03-31T06:46:39.380Z,48
2017-03-31T06:47:47.461Z,60
2017-03-31T06:48:55.554Z,68
2017-03-31T06:50:03.640Z,76
2017-03-31T06:51:11.722Z,76
2017-03-31T06:52:19.810Z,76
2017-03-31T06:53:27.900Z,80
2017-03-31T06:54:35.981Z,84
2017-03-31T06:55:44.062Z,84
2017-03-31T06:56:52.154Z,88
2017-03-31T06:58:00.239Z,84
2017-03-31T06:59:08.326Z,88
2017-03-31T07:00:16.422Z,88
2017-03-31T07:01:24.499Z,80
2017-03-31T07:02:32.582Z,76
2017-03-31T07:03:40.668Z,68
2017-03-31T07:04:48.756Z,64
2017-03-31T07:05:56.843Z,56
2017-03-31T07:07:04.923Z,40
2017-03-31T07:08:13.010Z,28
2017-03-31T07:09:21.098Z,32
2017-03-31T07:10:29.186Z,32
2017-03-31T07:11:37.272Z,36
2017-03-31T07:12:45.364Z,40
2017-03-31T07:13:53.448Z,44
2017-03-31T07:15:01.532Z,48
2017-03-31T07:16:09.620Z,56
2017-03-31T07:17:17.704Z,60
2017-03-31T07:18:25.791Z,72
2017-03-31T07:19:33.872Z,72
2017-03-31T07:20:41.962Z,68
2017-03-31T07:21:50.044Z,68
2017-03-31T07:22:58.132Z,68
2017-03-31T07:24:06.227Z,56
2017-03-31T07:25:14.311Z,52
2017-03-31T07:26:22.395Z,52
2017-03-31T07:27:30.482Z,48
2017-03-31T07:28:38.569Z,48
2017-03-31T07:29:46.655Z,48
2017-03-31T07:30:54.739Z,48
2017-03-31T07:32:02.833Z,48
2017-03-31T07:33:10.917Z,48
2017-03-31T07:34:19.001Z,48
2017-03-31T07:35:27.090Z,44
2017-03-31T07:36:35.171Z,44
2017-03-31T07:37:43.294Z,36
2017-03-31T07:38:51.339Z,40
2017-03-31T07:39:59.427Z,40
2017-03-31T07:41:07.517Z,40
2017-03-31T07:42:15.866Z,44
2017-03-31T07:43:23.693Z,44
2017-03-31T07:44:32.156Z,44
2017-03-31T07:45:39.865Z,44
2017-03-31T07:46:47.951Z,44
2017-03-31T07:47:56.039Z,44
2017-03-31T07:49:04.119Z,44
2017-03-31T07:50:12.204Z,44
2017-03-31T07:51:20.294Z,44
2017-03-31T07:52:28.383Z,40
2017-03-31T07:53:36.463Z,40
2017-03-31T07:54:44.542Z,44
2017-03-31T07:55:52.631Z,44
2017-03-31T07:57:00.858Z,48
2017-03-31T07:58:08.806Z,48
2017-03-31T07:59:16.902Z,48
2017-03-31T08:00:24.983Z,48
2017-03-31T08:01:33.064Z,48
2017-03-31T08:02:41.152Z,52
2017-03-31T08:03:49.245Z,48
2017-03-31T08:04:57.328Z,48
2017-03-31T08:06:05.415Z,44
2017-03-31T08:07:13.984Z,48
2017-03-31T08:08:21.589Z,44
2017-03-31T08:09:29.673Z,44
2017-03-31T08:10:37.754Z,44
2017-03-31T08:11:45.844Z,44
2017-03-31T08:12:53.936Z,44
2017-03-31T08:14:02.012Z,48
2017-03-31T08:15:10.106Z,44
2017-03-31T08:16:18.479Z,44
2017-03-31T08:17:26.298Z,44
2017-03-31T08:18:34.359Z,44
2017-03-31T08:19:42.456Z,44
2017-03-31T08:20:51.245Z,44
2017-03-31T08:21:58.634Z,44
2017-03-31T08:23:06.720Z,44
2017-03-31T08:24:14.843Z,44
2017-03-31T08:25:22.892Z,44
2017-03-31T08:26:30.978Z,48
2017-03-31T08:27:39.066Z,48
2017-03-31T08:28:47.363Z,44
2017-03-31T08:29:55.628Z,44
2017-03-31T08:31:03.438Z,44
2017-03-31T08:32:11.691Z,44
2017-03-31T08:33:19.493Z,44
2017-03-31T08:34:27.574Z,44
2017-03-31T08:35:35.762Z,44
2017-03-31T08:36:43.749Z,48
2017-03-31T08:37:51.832Z,44
2017-03-31T08:38:59.921Z,44
2017-03-31T08:40:08.008Z,48
2017-03-31T08:41:16.156Z,48
2017-03-31T08:42:24.177Z,44
2017-03-31T08:43:32.268Z,44
2017-03-31T08:44:40.354Z,44
2017-03-31T08:45:48.440Z,44
2017-03-31T08:46:56.531Z,44
2017-03-31T08:48:04.621Z,44
2017-03-31T08:49:12.703Z,44
2017-03-31T08:50:20.794Z,44
2017-03-31T08:51:28.879Z,44
2017-03-31T08:52:36.966Z,44
2017-03-31T08:53:45.048Z,44
2017-03-31T08:54:53.137Z,44
2017-03-31T08:56:01.224Z,48
2017-03-31T08:57:09.313Z,48
2017-03-31T08:58:17.393Z,44
2017-03-31T08:59:25.484Z,48
2017-03-31T09:00:33.567Z,44
2017-03-31T09:01:41.658Z,44
2017-03-31T09:02:49.745Z,48
2017-03-31T09:03:57.828Z,48
2017-03-31T09:05:05.911Z,48
2017-03-31T09:06:14.000Z,48
2017-03-31T09:07:22.087Z,48
2017-03-31T09:08:30.174Z,48
2017-03-31T09:09:38.257Z,52
2017-03-31T09:10:46.344Z,52
2017-03-31T09:11:54.434Z,52
2017-03-31T09:13:03.118Z,48
2017-03-31T09:14:10.860Z,48
2017-03-31T09:15:18.690Z,48
2017-03-31T09:16:26.770Z,48
2017-03-31T09:17:34.856Z,52
2017-03-31T09:18:42.946Z,52
2017-03-31T09:19:51.040Z,48
2017-03-31T09:20:59.116Z,52
2017-03-31T09:22:07.203Z,52
2017-03-31T09:23:15.922Z,48
2017-03-31T09:24:23.371Z,48
2017-03-31T09:25:31.457Z,52
2017-03-31T09:26:39.547Z,52
2017-03-31T09:27:47.629Z,52
2017-03-31T09:28:55.721Z,52
2017-03-31T09:30:03.802Z,48
2017-03-31T09:31:11.892Z,52
2017-03-31T09:32:19.976Z,52
2017-03-31T09:33:28.057Z,52
2017-03-31T09:34:36.147Z,52
2017-03-31T09:35:44.231Z,52
2017-03-31T09:36:52.316Z,52
2017-03-31T09:38:00.404Z,56
2017-03-31T09:39:08.491Z,56
2017-03-31T09:40:16.575Z,52
2017-03-31T09:41:24.662Z,48
2017-03-31T09:42:32.752Z,48
2017-03-31T09:43:40.836Z,56
2017-03-31T09:44:48.935Z,56
2017-03-31T09:45:57.019Z,52
2017-03-31T09:47:05.109Z,52
2017-03-31T09:48:13.216Z,56
2017-03-31T09:49:21.276Z,52
2017-03-31T09:50:29.363Z,52
2017-03-31T09:51:37.447Z,56
2017-03-31T09:52:45.534Z,52
2017-03-31T09:53:53.651Z,56
2017-03-31T09:55:01.713Z,52
2017-03-31T09:56:09.802Z,52
2017-03-31T09:57:17.887Z,52
2017-03-31T09:58:25.971Z,52
2017-03-31T09:59:34.055Z,52
2017-03-31T10:00:42.582Z,52
2017-03-31T10:01:50.361Z,52
2017-03-31T10:02:58.472Z,56
2017-03-31T10:04:06.402Z,56
2017-03-31T10:05:14.711Z,52
2017-03-31T10:06:22.826Z,56
2017-03-31T10:07:30.663Z,56
2017-03-31T10:08:38.745Z,52
2017-03-31T10:09:46.835Z,56
2017-03-31T10:10:54.921Z,56
2017-03-31T10:12:03.006Z,56
2017-03-31T10:13:11.098Z,60
2017-03-31T10:14:19.183Z,60
2017-03-31T10:15:27.266Z,60
2017-03-31T10:16:35.359Z,56
2017-03-31T10:17:43.447Z,60
2017-03-31T10:18:51.538Z,56
2017-03-31T10:19:59.621Z,60
2017-03-31T10:21:07.710Z,60
2017-03-31T10:22:15.802Z,60
2017-03-31T10:23:23.893Z,60
2017-03-31T10:24:31.976Z,56
2017-03-31T10:25:40.060Z,56
2017-03-31T10:26:48.146Z,56
2017-03-31T10:27:56.235Z,56
2017-03-31T10:29:04.319Z,60
2017-03-31T10:30:12.408Z,56
2017-03-31T10:31:20.499Z,56
2017-03-31T10:32:28.586Z,52
2017-03-31T10:33:36.672Z,52
2017-03-31T10:34:44.757Z,56
2017-03-31T10:35:52.838Z,52
2017-03-31T10:37:00.930Z,52
2017-03-31T10:38:09.011Z,52
2017-03-31T10:39:17.096Z,52
2017-03-31T10:40:25.183Z,52
2017-03-31T10:41:33.272Z,52
2017-03-31T10:42:41.364Z,52
2017-03-31T10:43:49.444Z,52
2017-03-31T10:44:57.535Z,52
2017-03-31T10:46:05.623Z,52
2017-03-31T10:47:13.711Z,52
2017-03-31T10:48:21.799Z,52
2017-03-31T10:49:29.886Z,48
2017-03-31T10:50:38.415Z,52
2017-03-31T10:51:46.061Z,48
2017-03-31T10:52:54.215Z,48
2017-03-31T10:54:02.240Z,48
2017-03-31T10:55:10.328Z,52
2017-03-31T10:56:18.412Z,52
2017-03-31T10:57:26.505Z,56
2017-03-31T10:58:34.591Z,56
2017-03-31T10:59:42.675Z,56
2017-03-31T11:00:50.767Z,56
2017-03-31T11:01:58.851Z,56
2017-03-31T11:03:06.936Z,56
2017-03-31T11:04:15.029Z,56
2017-03-31T11:05:23.112Z,60
2017-03-31T11:06:31.196Z,60
2017-03-31T11:07:39.283Z,56
2017-03-31T11:08:47.366Z,52
2017-03-31T11:09:55.505Z,52
2017-03-31T11:11:03.542Z,56
2017-03-31T11:12:11.629Z,56
2017-03-31T11:13:19.826Z,52
2017-03-31T11:14:27.799Z,52
2017-03-31T11:15:36.036Z,52
2017-03-31T11:16:43.975Z,52
2017-03-31T11:17:52.059Z,48
2017-03-31T11:19:00.141Z,52
2017-03-31T11:20:08.233Z,56
2017-03-31T11:21:16.354Z,56
2017-03-31T11:22:24.407Z,56
2017-03-31T11:23:34.095Z,56
2017-03-31T11:24:40.586Z,56
2017-03-31T11:25:48.672Z,52
2017-03-31T11:26:56.837Z,52
2017-03-31T11:28:04.841Z,52
2017-03-31T11:29:12.930Z,52
2017-03-31T11:30:21.014Z,52
2017-03-31T11:31:29.098Z,52
2017-03-31T11:32:37.184Z,48
2017-03-31T11:33:45.272Z,48
2017-03-31T11:34:53.360Z,48
2017-03-31T11:36:01.449Z,48
2017-03-31T11:37:09.535Z,48
2017-03-31T11:38:17.618Z,52
2017-03-31T11:39:25.700Z,52
2017-03-31T11:40:33.789Z,52
2017-03-31T11:41:41.878Z,56
2017-03-31T11:42:49.960Z,56
2017-03-31T11:43:58.050Z,52
2017-03-31T11:45:06.136Z,56
2017-03-31T11:46:14.230Z,56
2017-03-31T11:47:22.306Z,52
2017-03-31T11:48:30.401Z,56
2017-03-31T11:49:38.489Z,52
2017-03-31T11:50:46.569Z,48
2017-03-31T11:51:54.662Z,48
2017-03-31T11:53:02.750Z,48
2017-03-31T11:54:10.831Z,52
2017-03-31T11:55:18.924Z,48
2017-03-31T11:56:27.016Z,48
2017-03-31T11:57:35.109Z,48
2017-03-31T11:58:43.187Z,52
2017-03-31T11:59:51.276Z,52
2017-03-31T12:00:59.360Z,52
2017-03-31T12:02:07.442Z,56
2017-03-31T12:03:15.531Z,52
2017-03-31T12:04:24.130Z,52
2017-03-31T12:05:31.708Z,48
2017-03-31T12:06:39.793Z,48
2017-03-31T12:07:47.886Z,52
2017-03-31T12:08:55.972Z,48
2017-03-31T12:10:04.057Z,48
2017-03-31T12:11:12.143Z,44
2017-03-31T12:12:20.492Z,44
2017-03-31T12:13:28.807Z,48
2017-03-31T12:14:36.604Z,48
2017-03-31T12:15:44.636Z,52
2017-03-31T12:16:53.057Z,48
2017-03-31T12:18:00.923Z,48
2017-03-31T12:19:08.763Z,48
2017-03-31T12:20:16.849Z,52
2017-03-31T12:21:24.933Z,52
2017-03-31T12:22:33.017Z,56
2017-03-31T12:23:41.369Z,52
2017-03-31T12:24:49.472Z,56
2017-03-31T12:25:57.281Z,56
2017-03-31T12:27:05.369Z,56
2017-03-31T12:28:13.462Z,56
2017-03-31T12:29:21.544Z,60
2017-03-31T12:30:29.625Z,60
2017-03-31T12:31:37.713Z,60
2017-03-31T12:32:45.801Z,60
2017-03-31T12:33:53.890Z,60
2017-03-31T12:35:01.973Z,60
2017-03-31T12:36:10.064Z,60
2017-03-31T12:37:18.147Z,60
2017-03-31T12:38:26.234Z,64
2017-03-31T12:39:34.326Z,64
2017-03-31T12:40:42.414Z,60
2017-03-31T12:41:50.497Z,64
2017-03-31T12:42:58.588Z,64
2017-03-31T12:44:06.673Z,60
2017-03-31T12:45:14.766Z,64
2017-03-31T12:46:22.850Z,60
2017-03-31T12:47:30.944Z,60
2017-03-31T12:48:39.036Z,60
2017-03-31T12:49:47.434Z,56
2017-03-31T12:50:55.208Z,60
2017-03-31T12:52:03.295Z,56
2017-03-31T12:53:11.379Z,56
2017-03-31T12:54:19.465Z,60
2017-03-31T12:55:27.559Z,56
2017-03-31T12:56:35.656Z,56
2017-03-31T12:57:43.737Z,56
2017-03-31T12:58:52.444Z,52
2017-03-31T12:59:59.908Z,52
2017-03-31T13:01:07.994Z,56
2017-03-31T13:02:16.081Z,56
2017-03-31T13:03:24.168Z,52
2017-03-31T13:04:32.254Z,56
2017-03-31T13:05:40.349Z,56
2017-03-31T13:06:48.429Z,56
2017-03-31T13:07:56.523Z,56
2017-03-31T13:09:04.604Z,56
2017-03-31T13:10:12.689Z,56
2017-03-31T13:11:20.776Z,56
2017-03-31T13:12:28.862Z,52
2017-03-31T13:13:36.949Z,52
2017-03-31T13:14:45.038Z,52
2017-03-31T13:15:53.121Z,52
2017-03-31T13:17:01.211Z,56
2017-03-31T13:18:09.295Z,56
2017-03-31T13:19:17.381Z,60
2017-03-31T13:20:25.468Z,60
2017-03-31T13:21:33.548Z,60
2017-03-31T13:22:41.638Z,52
2017-03-31T13:23:49.728Z,56
2017-03-31T13:24:57.812Z,56
2017-03-31T13:26:05.907Z,52
2017-03-31T13:27:13.990Z,52
2017-03-31T13:28:22.073Z,52
2017-03-31T13:29:30.159Z,52
2017-03-31T13:30:38.249Z,56
2017-03-31T13:31:46.341Z,52
2017-03-31T13:32:54.419Z,52
2017-03-31T13:34:02.511Z,52
2017-03-31T13:35:10.598Z,52
2017-03-31T13:36:18.684Z,52
2017-03-31T13:37:26.770Z,52
2017-03-31T13:38:34.857Z,52
2017-03-31T13:39:42.944Z,48
2017-03-31T13:40:51.027Z,52
2017-03-31T13:41:59.119Z,48
2017-03-31T13:43:07.203Z,52
2017-03-31T13:44:15.291Z,52
2017-03-31T13:45:23.372Z,48
2017-03-31T13:46:31.465Z,48
2017-03-31T13:47:39.551Z,52
2017-03-31T13:48:47.633Z,52
2017-03-31T13:49:55.724Z,48
2017-03-31T13:51:03.811Z,52
2017-03-31T13:52:11.894Z,52
2017-03-31T13:53:20.018Z,56
2017-03-31T13:54:28.070Z,52
2017-03-31T13:55:36.178Z,56
2017-03-31T13:56:44.240Z,56
2017-03-31T13:57:52.326Z,52
2017-03-31T13:59:00.416Z,56
2017-03-31T14:00:08.503Z,60
2017-03-31T14:01:16.584Z,56
2017-03-31T14:02:24.674Z,56
2017-03-31T14:03:32.761Z,56
2017-03-31T14:04:40.844Z,56
2017-03-31T14:05:48.937Z,56
2017-03-31T14:06:57.024Z,56
2017-03-31T14:08:05.111Z,56
2017-03-31T14:09:13.195Z,56
2017-03-31T14:10:21.286Z,60
2017-03-31T14:11:29.374Z,60
2017-03-31T14:12:37.490Z,60
2017-03-31T14:13:45.548Z,60
2017-03-31T14:14:53.635Z,60
2017-03-31T14:16:01.723Z,60
2017-03-31T14:17:09.813Z,56
2017-03-31T14:18:17.898Z,56
2017-03-31T14:19:25.984Z,56
2017-03-31T14:20:34.069Z,52
2017-03-31T14:21:42.165Z,56
2017-03-31T14:22:50.244Z,52
2017-03-31T14:23:58.332Z,52
2017-03-31T14:25:06.418Z,56
2017-03-31T14:26:14.506Z,52
2017-03-31T14:27:22.586Z,52
2017-03-31T14:28:30.673Z,52
2017-03-31T14:29:38.764Z,52
2017-03-31T14:30:46.854Z,52
2017-03-31T14:31:54.939Z,48
2017-03-31T14:33:03.034Z,48
2017-03-31T14:34:11.118Z,48
2017-03-31T14:35:19.202Z,48
2017-03-31T14:36:27.287Z,48
2017-03-31T14:37:35.377Z,48
2017-03-31T14:38:43.459Z,52
2017-03-31T14:39:51.546Z,56
2017-03-31T14:40:59.636Z,52
2017-03-31T14:42:07.721Z,52
2017-03-31T14:43:15.806Z,52
2017-03-31T14:44:23.895Z,48
2017-03-31T14:45:31.980Z,48
2017-03-31T14:46:40.066Z,44
2017-03-31T14:47:48.153Z,44
2017-03-31T14:48:56.241Z,44
2017-03-31T14:50:04.330Z,48
2017-03-31T14:51:12.415Z,48
2017-03-31T14:52:20.501Z,48
2017-03-31T14:53:28.591Z,44
2017-03-31T14:54:36.681Z,48
2017-03-31T14:55:44.760Z,44
2017-03-31T14:56:52.852Z,44
2017-03-31T14:58:00.945Z,44
2017-03-31T14:59:09.027Z,44
2017-03-31T15:00:17.107Z,44
2017-03-31T15:01:25.198Z,44
2017-03-31T15:02:33.279Z,44
2017-03-31T15:03:41.362Z,44
2017-03-31T15:04:49.452Z,40
2017-03-31T15:05:57.538Z,44
2017-03-31T15:07:05.624Z,40
2017-03-31T15:08:13.709Z,40
2017-03-31T15:09:21.799Z,44
2017-03-31T15:10:29.885Z,40
2017-03-31T15:11:37.968Z,40
2017-03-31T15:12:46.060Z,40
2017-03-31T15:13:54.146Z,40
2017-03-31T15:15:02.228Z,40
2017-03-31T15:16:10.313Z,36
2017-03-31T15:17:18.401Z,36
2017-03-31T15:18:26.525Z,40
2017-03-31T15:19:34.582Z,40
2017-03-31T15:20:42.676Z,40
2017-03-31T15:21:50.762Z,36
2017-03-31T15:22:58.847Z,36
2017-03-31T15:24:06.932Z,40
2017-03-31T15:25:15.045Z,40
2017-03-31T15:26:23.100Z,36
2017-03-31T15:27:31.185Z,40
2017-03-31T15:28:39.279Z,40
2017-03-31T15:29:47.375Z,40
2017-03-31T15:30:55.460Z,36
2017-03-31T15:32:03.550Z,36
2017-03-31T15:33:11.635Z,40
2017-03-31T15:34:19.721Z,36
2017-03-31T15:35:27.803Z,40
2017-03-31T15:36:35.894Z,40
2017-03-31T15:37:43.980Z,40
2017-03-31T15:38:52.064Z,40
2017-03-31T15:40:00.154Z,36
2017-03-31T15:41:08.247Z,40
2017-03-31T15:42:16.333Z,36
2017-03-31T15:43:24.415Z,36
2017-03-31T15:44:32.507Z,32
2017-03-31T15:45:40.599Z,36
2017-03-31T15:46:48.683Z,32
2017-03-31T15:47:56.774Z,36
2017-03-31T15:49:04.862Z,36
2017-03-31T15:50:12.946Z,36
2017-03-31T15:51:21.033Z,36
2017-03-31T15:52:29.119Z,32
2017-03-31T15:53:37.204Z,32
2017-03-31T15:54:45.294Z,32
2017-03-31T15:55:53.377Z,32
2017-03-31T15:57:01.463Z,28
2017-03-31T15:58:09.548Z,32
2017-03-31T15:59:17.634Z,28
2017-03-31T16:00:25.727Z,28
2017-03-31T16:01:33.813Z,28
2017-03-31T16:02:41.895Z,28
2017-03-31T16:03:49.983Z,28
2017-03-31T16:04:58.073Z,24
2017-03-31T16:06:06.156Z,24
2017-03-31T16:07:14.242Z,24
2017-03-31T16:08:22.334Z,24
2017-03-31T16:09:30.422Z,24
2017-03-31T16:10:38.509Z,24
2017-03-31T16:11:47.027Z,24
2017-03-31T16:12:54.683Z,24
2017-03-31T16:14:02.766Z,20
2017-03-31T16:15:10.851Z,20
2017-03-31T16:16:18.940Z,20
2017-03-31T16:17:27.024Z,20
2017-03-31T16:18:35.113Z,16
2017-03-31T16:19:43.197Z,16
2017-03-31T16:20:51.284Z,20
2017-03-31T16:21:59.372Z,16
2017-03-31T16:23:07.453Z,16